sensor_id;sensor_type;location;lat;lon;timestamp;P1;durP1;ratioP1;P2;durP2;ratioP2
45232;SDS011;30969;51.052;17.056;2023-03-17T00:01:42;52.30;;;24.73;;
45232;SDS011;30969;51.052;17.056;2023-03-17T00:06:48;48.13;;;22.98;;
45232;SDS011;30969;51.052;17.056;2023-03-17T00:11:52;56.90;;;25.25;;
45232;SDS011;30969;51.052;17.056;2023-03-17T00:16:58;55.60;;;24.02;;
45232;SDS011;30969;51.052;17.056;2023-03-17T00:22:02;63.53;;;23.83;;
45232;SDS011;30969;51.052;17.056;2023-03-17T00:27:09;49.25;;;21.63;;
45232;SDS011;30969;51.052;17.056;2023-03-17T00:32:16;45.35;;;20.40;;
45232;SDS011;30969;51.052;17.056;2023-03-17T00:37:22;49.95;;;21.83;;
45232;SDS011;30969;51.052;17.056;2023-03-17T00:42:25;42.17;;;20.67;;
45232;SDS011;30969;51.052;17.056;2023-03-17T00:47:30;43.25;;;18.35;;
45232;SDS011;30969;51.052;17.056;2023-03-17T00:52:34;50.17;;;20.33;;
45232;SDS011;30969;51.052;17.056;2023-03-17T00:57:38;41.60;;;19.83;;
45232;SDS011;30969;51.052;17.056;2023-03-17T01:02:43;52.08;;;22.92;;
45232;SDS011;30969;51.052;17.056;2023-03-17T01:07:47;50.97;;;22.42;;
45232;SDS011;30969;51.052;17.056;2023-03-17T01:12:56;49.72;;;23.55;;
45232;SDS011;30969;51.052;17.056;2023-03-17T01:18:02;52.90;;;23.42;;
45232;SDS011;30969;51.052;17.056;2023-03-17T01:23:06;46.58;;;21.05;;
45232;SDS011;30969;51.052;17.056;2023-03-17T01:28:11;51.13;;;22.20;;
45232;SDS011;30969;51.052;17.056;2023-03-17T01:33:17;49.78;;;22.90;;
45232;SDS011;30969;51.052;17.056;2023-03-17T01:38:21;50.97;;;21.95;;
45232;SDS011;30969;51.052;17.056;2023-03-17T01:43:26;41.53;;;21.15;;
45232;SDS011;30969;51.052;17.056;2023-03-17T01:48:33;47.60;;;20.85;;
45232;SDS011;30969;51.052;17.056;2023-03-17T01:53:40;45.00;;;20.33;;
45232;SDS011;30969;51.052;17.056;2023-03-17T01:58:48;41.83;;;19.38;;
45232;SDS011;30969;51.052;17.056;2023-03-17T02:03:56;40.58;;;19.67;;
45232;SDS011;30969;51.052;17.056;2023-03-17T02:09:01;40.55;;;18.65;;
45232;SDS011;30969;51.052;17.056;2023-03-17T02:14:04;38.38;;;19.35;;
45232;SDS011;30969;51.052;17.056;2023-03-17T02:19:10;42.25;;;18.85;;
45232;SDS011;30969;51.052;17.056;2023-03-17T02:24:17;41.63;;;18.42;;
45232;SDS011;30969;51.052;17.056;2023-03-17T02:29:25;36.50;;;16.08;;
45232;SDS011;30969;51.052;17.056;2023-03-17T02:34:29;34.15;;;16.35;;
45232;SDS011;30969;51.052;17.056;2023-03-17T02:39:34;30.60;;;14.25;;
45232;SDS011;30969;51.052;17.056;2023-03-17T02:44:38;31.27;;;15.52;;
45232;SDS011;30969;51.052;17.056;2023-03-17T02:49:42;33.75;;;14.90;;
45232;SDS011;30969;51.052;17.056;2023-03-17T02:54:47;23.80;;;11.68;;
45232;SDS011;30969;51.052;17.056;2023-03-17T03:05:21;25.70;;;12.43;;
45232;SDS011;30969;51.052;17.056;2023-03-17T03:10:26;29.33;;;12.45;;
45232;SDS011;30969;51.052;17.056;2023-03-17T03:15:30;28.98;;;13.07;;
45232;SDS011;30969;51.052;17.056;2023-03-17T03:20:34;23.80;;;11.20;;
45232;SDS011;30969;51.052;17.056;2023-03-17T03:25:39;22.00;;;11.77;;
45232;SDS011;30969;51.052;17.056;2023-03-17T03:30:43;24.63;;;11.20;;
45232;SDS011;30969;51.052;17.056;2023-03-17T03:35:47;24.60;;;10.73;;
45232;SDS011;30969;51.052;17.056;2023-03-17T03:40:52;24.35;;;11.02;;
45232;SDS011;30969;51.052;17.056;2023-03-17T03:45:56;23.73;;;9.82;;
45232;SDS011;30969;51.052;17.056;2023-03-17T03:51:00;19.92;;;10.00;;
45232;SDS011;30969;51.052;17.056;2023-03-17T03:56:06;17.42;;;9.65;;
45232;SDS011;30969;51.052;17.056;2023-03-17T04:01:09;19.42;;;8.82;;
45232;SDS011;30969;51.052;17.056;2023-03-17T04:06:13;21.25;;;9.75;;
45232;SDS011;30969;51.052;17.056;2023-03-17T04:11:18;20.45;;;9.02;;
45232;SDS011;30969;51.052;17.056;2023-03-17T04:16:21;19.08;;;9.65;;
45232;SDS011;30969;51.052;17.056;2023-03-17T04:21:25;16.90;;;9.13;;
45232;SDS011;30969;51.052;17.056;2023-03-17T04:26:31;18.55;;;9.85;;
45232;SDS011;30969;51.052;17.056;2023-03-17T04:31:34;21.65;;;10.20;;
45232;SDS011;30969;51.052;17.056;2023-03-17T04:36:38;29.17;;;11.95;;
45232;SDS011;30969;51.052;17.056;2023-03-17T04:41:44;25.27;;;11.32;;
45232;SDS011;30969;51.052;17.056;2023-03-17T04:46:48;24.85;;;10.55;;
45232;SDS011;30969;51.052;17.056;2023-03-17T04:51:51;24.95;;;11.98;;
45232;SDS011;30969;51.052;17.056;2023-03-17T04:56:56;21.85;;;10.57;;
45232;SDS011;30969;51.052;17.056;2023-03-17T05:01:59;24.35;;;10.30;;
45232;SDS011;30969;51.052;17.056;2023-03-17T05:07:03;25.67;;;9.98;;
45232;SDS011;30969;51.052;17.056;2023-03-17T05:12:09;22.13;;;9.35;;
45232;SDS011;30969;51.052;17.056;2023-03-17T05:17:13;23.75;;;9.50;;
45232;SDS011;30969;51.052;17.056;2023-03-17T05:22:17;24.67;;;10.35;;
45232;SDS011;30969;51.052;17.056;2023-03-17T05:27:22;19.55;;;10.40;;
45232;SDS011;30969;51.052;17.056;2023-03-17T05:32:26;21.15;;;10.02;;
45232;SDS011;30969;51.052;17.056;2023-03-17T05:37:29;22.23;;;10.55;;
45232;SDS011;30969;51.052;17.056;2023-03-17T05:42:35;24.13;;;10.80;;
45232;SDS011;30969;51.052;17.056;2023-03-17T05:47:38;25.02;;;10.65;;
45232;SDS011;30969;51.052;17.056;2023-03-17T05:52:42;21.10;;;11.20;;
45232;SDS011;30969;51.052;17.056;2023-03-17T05:57:47;23.67;;;10.93;;
45232;SDS011;30969;51.052;17.056;2023-03-17T06:02:51;26.10;;;11.32;;
45232;SDS011;30969;51.052;17.056;2023-03-17T06:07:54;27.80;;;12.07;;
45232;SDS011;30969;51.052;17.056;2023-03-17T06:12:59;23.65;;;11.40;;
45232;SDS011;30969;51.052;17.056;2023-03-17T06:18:04;28.98;;;13.23;;
45232;SDS011;30969;51.052;17.056;2023-03-17T06:23:08;33.35;;;14.98;;
45232;SDS011;30969;51.052;17.056;2023-03-17T06:28:13;33.65;;;15.90;;
45232;SDS011;30969;51.052;17.056;2023-03-17T06:33:17;34.95;;;17.15;;
45232;SDS011;30969;51.052;17.056;2023-03-17T06:38:21;30.83;;;17.45;;
45232;SDS011;30969;51.052;17.056;2023-03-17T06:43:26;41.80;;;19.70;;
45232;SDS011;30969;51.052;17.056;2023-03-17T06:48:30;43.22;;;21.15;;
45232;SDS011;30969;51.052;17.056;2023-03-17T06:53:35;45.50;;;22.55;;
45232;SDS011;30969;51.052;17.056;2023-03-17T06:58:39;39.97;;;20.40;;
45232;SDS011;30969;51.052;17.056;2023-03-17T07:03:43;47.88;;;23.23;;
45232;SDS011;30969;51.052;17.056;2023-03-17T07:08:47;37.95;;;21.52;;
45232;SDS011;30969;51.052;17.056;2023-03-17T07:13:52;38.63;;;19.77;;
45232;SDS011;30969;51.052;17.056;2023-03-17T07:18:57;37.25;;;18.58;;
45232;SDS011;30969;51.052;17.056;2023-03-17T07:24:00;40.30;;;18.90;;
45232;SDS011;30969;51.052;17.056;2023-03-17T07:29:06;32.50;;;18.13;;
45232;SDS011;30969;51.052;17.056;2023-03-17T07:34:10;39.83;;;19.73;;
45232;SDS011;30969;51.052;17.056;2023-03-17T07:39:14;36.10;;;18.05;;
45232;SDS011;30969;51.052;17.056;2023-03-17T07:44:19;32.40;;;17.00;;
45232;SDS011;30969;51.052;17.056;2023-03-17T07:49:23;32.50;;;17.13;;
45232;SDS011;30969;51.052;17.056;2023-03-17T07:54:42;33.00;;;15.68;;
45232;SDS011;30969;51.052;17.056;2023-03-17T07:59:46;32.38;;;15.95;;
45232;SDS011;30969;51.052;17.056;2023-03-17T08:04:51;24.88;;;14.70;;
45232;SDS011;30969;51.052;17.056;2023-03-17T08:09:55;23.40;;;12.95;;
45232;SDS011;30969;51.052;17.056;2023-03-17T08:15:00;26.05;;;12.32;;
45232;SDS011;30969;51.052;17.056;2023-03-17T08:20:04;25.13;;;12.05;;
45232;SDS011;30969;51.052;17.056;2023-03-17T08:25:09;20.27;;;10.95;;
45232;SDS011;30969;51.052;17.056;2023-03-17T08:30:14;19.98;;;10.90;;
45232;SDS011;30969;51.052;17.056;2023-03-17T08:35:18;21.70;;;12.00;;
45232;SDS011;30969;51.052;17.056;2023-03-17T08:40:22;22.10;;;10.88;;
45232;SDS011;30969;51.052;17.056;2023-03-17T08:45:27;23.15;;;12.18;;
45232;SDS011;30969;51.052;17.056;2023-03-17T08:50:31;19.58;;;10.85;;
45232;SDS011;30969;51.052;17.056;2023-03-17T08:55:36;25.10;;;10.82;;
45232;SDS011;30969;51.052;17.056;2023-03-17T09:00:40;19.15;;;9.70;;
45232;SDS011;30969;51.052;17.056;2023-03-17T09:05:44;18.90;;;10.73;;
45232;SDS011;30969;51.052;17.056;2023-03-17T09:10:48;20.40;;;11.20;;
45232;SDS011;30969;51.052;17.056;2023-03-17T09:15:54;17.08;;;8.52;;
45232;SDS011;30969;51.052;17.056;2023-03-17T09:20:57;16.05;;;8.55;;
45232;SDS011;30969;51.052;17.056;2023-03-17T09:26:01;14.80;;;7.72;;
45232;SDS011;30969;51.052;17.056;2023-03-17T09:31:06;13.15;;;7.43;;
45232;SDS011;30969;51.052;17.056;2023-03-17T09:36:12;16.25;;;8.82;;
45232;SDS011;30969;51.052;17.056;2023-03-17T09:41:21;12.05;;;6.90;;
45232;SDS011;30969;51.052;17.056;2023-03-17T09:47:01;11.95;;;6.85;;
45232;SDS011;30969;51.052;17.056;2023-03-17T09:52:15;13.38;;;5.50;;
45232;SDS011;30969;51.052;17.056;2023-03-17T09:57:23;10.57;;;5.28;;
45232;SDS011;30969;51.052;17.056;2023-03-17T10:02:33;10.93;;;5.75;;
45232;SDS011;30969;51.052;17.056;2023-03-17T10:07:39;8.23;;;5.15;;
45232;SDS011;30969;51.052;17.056;2023-03-17T10:12:48;11.65;;;6.55;;
45232;SDS011;30969;51.052;17.056;2023-03-17T10:18:04;10.90;;;6.68;;
45232;SDS011;30969;51.052;17.056;2023-03-17T10:23:12;10.77;;;5.88;;
45232;SDS011;30969;51.052;17.056;2023-03-17T10:28:28;9.13;;;5.28;;
45232;SDS011;30969;51.052;17.056;2023-03-17T10:33:37;8.80;;;4.60;;
45232;SDS011;30969;51.052;17.056;2023-03-17T10:38:45;10.48;;;4.80;;
45232;SDS011;30969;51.052;17.056;2023-03-17T10:43:52;7.28;;;3.70;;
45232;SDS011;30969;51.052;17.056;2023-03-17T10:49:02;7.40;;;4.35;;
45232;SDS011;30969;51.052;17.056;2023-03-17T10:54:10;7.45;;;3.90;;
45232;SDS011;30969;51.052;17.056;2023-03-17T10:59:19;9.48;;;4.75;;
45232;SDS011;30969;51.052;17.056;2023-03-17T11:04:38;7.10;;;3.92;;
45232;SDS011;30969;51.052;17.056;2023-03-17T11:09:44;9.43;;;3.65;;
45232;SDS011;30969;51.052;17.056;2023-03-17T11:14:53;10.45;;;4.10;;
45232;SDS011;30969;51.052;17.056;2023-03-17T11:20:06;10.40;;;3.42;;
45232;SDS011;30969;51.052;17.056;2023-03-17T11:25:21;12.05;;;4.60;;
45232;SDS011;30969;51.052;17.056;2023-03-17T11:30:27;9.13;;;3.38;;
45232;SDS011;30969;51.052;17.056;2023-03-17T11:35:43;7.13;;;3.47;;
45232;SDS011;30969;51.052;17.056;2023-03-17T11:46:33;7.25;;;3.67;;
45232;SDS011;30969;51.052;17.056;2023-03-17T11:51:45;5.55;;;3.78;;
45232;SDS011;30969;51.052;17.056;2023-03-17T11:56:56;6.55;;;3.50;;
45232;SDS011;30969;51.052;17.056;2023-03-17T12:02:09;8.18;;;3.08;;
45232;SDS011;30969;51.052;17.056;2023-03-17T12:07:24;7.28;;;2.97;;
45232;SDS011;30969;51.052;17.056;2023-03-17T12:12:31;6.63;;;3.63;;
45232;SDS011;30969;51.052;17.056;2023-03-17T12:17:41;8.05;;;3.03;;
45232;SDS011;30969;51.052;17.056;2023-03-17T12:22:53;8.20;;;3.75;;
45232;SDS011;30969;51.052;17.056;2023-03-17T12:28:00;6.70;;;3.47;;
45232;SDS011;30969;51.052;17.056;2023-03-17T12:33:10;6.00;;;3.13;;
45232;SDS011;30969;51.052;17.056;2023-03-17T12:43:35;6.10;;;3.28;;
45232;SDS011;30969;51.052;17.056;2023-03-17T12:54:30;6.18;;;3.20;;
45232;SDS011;30969;51.052;17.056;2023-03-17T12:59:35;5.25;;;3.28;;
45232;SDS011;30969;51.052;17.056;2023-03-17T13:04:48;6.60;;;3.50;;
45232;SDS011;30969;51.052;17.056;2023-03-17T13:21:10;9.18;;;4.20;;
45232;SDS011;30969;51.052;17.056;2023-03-17T13:26:18;7.68;;;4.28;;
45232;SDS011;30969;51.052;17.056;2023-03-17T13:31:33;9.15;;;3.35;;
45232;SDS011;30969;51.052;17.056;2023-03-17T13:36:40;8.73;;;3.35;;
45232;SDS011;30969;51.052;17.056;2023-03-17T13:41:56;9.23;;;3.58;;
45232;SDS011;30969;51.052;17.056;2023-03-17T13:47:31;14.40;;;4.05;;
45232;SDS011;30969;51.052;17.056;2023-03-17T13:52:40;5.97;;;4.18;;
45232;SDS011;30969;51.052;17.056;2023-03-17T13:57:53;5.50;;;3.80;;
45232;SDS011;30969;51.052;17.056;2023-03-17T14:03:17;11.05;;;3.90;;
45232;SDS011;30969;51.052;17.056;2023-03-17T14:08:26;11.95;;;5.35;;
45232;SDS011;30969;51.052;17.056;2023-03-17T14:13:36;8.05;;;3.67;;
45232;SDS011;30969;51.052;17.056;2023-03-17T14:18:47;6.95;;;3.53;;
45232;SDS011;30969;51.052;17.056;2023-03-17T14:23:56;6.68;;;3.65;;
45232;SDS011;30969;51.052;17.056;2023-03-17T14:29:02;8.27;;;4.28;;
45232;SDS011;30969;51.052;17.056;2023-03-17T14:34:10;8.77;;;3.25;;
45232;SDS011;30969;51.052;17.056;2023-03-17T14:39:19;10.77;;;3.83;;
45232;SDS011;30969;51.052;17.056;2023-03-17T14:44:25;6.40;;;2.78;;
45232;SDS011;30969;51.052;17.056;2023-03-17T14:49:29;7.28;;;2.67;;
45232;SDS011;30969;51.052;17.056;2023-03-17T14:54:34;5.63;;;3.42;;
45232;SDS011;30969;51.052;17.056;2023-03-17T14:59:39;6.55;;;3.63;;
45232;SDS011;30969;51.052;17.056;2023-03-17T15:04:50;6.60;;;3.33;;
45232;SDS011;30969;51.052;17.056;2023-03-17T15:09:58;7.57;;;3.85;;
45232;SDS011;30969;51.052;17.056;2023-03-17T15:15:06;7.10;;;3.40;;
45232;SDS011;30969;51.052;17.056;2023-03-17T15:20:23;10.27;;;4.90;;
45232;SDS011;30969;51.052;17.056;2023-03-17T15:25:31;6.70;;;4.13;;
45232;SDS011;30969;51.052;17.056;2023-03-17T15:30:39;6.82;;;4.05;;
45232;SDS011;30969;51.052;17.056;2023-03-17T15:35:49;7.57;;;4.13;;
45232;SDS011;30969;51.052;17.056;2023-03-17T15:40:53;10.48;;;4.45;;
45232;SDS011;30969;51.052;17.056;2023-03-17T15:45:58;7.85;;;4.55;;
45232;SDS011;30969;51.052;17.056;2023-03-17T15:51:04;10.48;;;4.47;;
45232;SDS011;30969;51.052;17.056;2023-03-17T15:56:12;6.97;;;4.60;;
45232;SDS011;30969;51.052;17.056;2023-03-17T16:01:21;8.38;;;5.10;;
45232;SDS011;30969;51.052;17.056;2023-03-17T16:06:28;9.18;;;5.15;;
45232;SDS011;30969;51.052;17.056;2023-03-17T16:11:31;8.82;;;4.75;;
45232;SDS011;30969;51.052;17.056;2023-03-17T16:16:37;14.77;;;4.90;;
45232;SDS011;30969;51.052;17.056;2023-03-17T16:21:43;11.68;;;4.97;;
45232;SDS011;30969;51.052;17.056;2023-03-17T16:26:46;10.18;;;5.40;;
45232;SDS011;30969;51.052;17.056;2023-03-17T16:31:52;10.57;;;6.28;;
45232;SDS011;30969;51.052;17.056;2023-03-17T16:36:56;12.57;;;6.88;;
45232;SDS011;30969;51.052;17.056;2023-03-17T16:42:00;11.27;;;6.00;;
45232;SDS011;30969;51.052;17.056;2023-03-17T16:47:05;13.20;;;7.70;;
45232;SDS011;30969;51.052;17.056;2023-03-17T16:52:10;12.20;;;6.43;;
45232;SDS011;30969;51.052;17.056;2023-03-17T16:57:14;19.23;;;7.82;;
45232;SDS011;30969;51.052;17.056;2023-03-17T17:02:19;16.98;;;8.38;;
45232;SDS011;30969;51.052;17.056;2023-03-17T17:07:22;21.67;;;11.55;;
45232;SDS011;30969;51.052;17.056;2023-03-17T17:12:26;27.65;;;13.07;;
45232;SDS011;30969;51.052;17.056;2023-03-17T17:17:31;21.60;;;10.70;;
45232;SDS011;30969;51.052;17.056;2023-03-17T17:22:36;18.05;;;8.40;;
45232;SDS011;30969;51.052;17.056;2023-03-17T17:27:40;16.92;;;9.50;;
45232;SDS011;30969;51.052;17.056;2023-03-17T17:32:47;29.10;;;13.55;;
45232;SDS011;30969;51.052;17.056;2023-03-17T17:37:54;19.92;;;9.90;;
45232;SDS011;30969;51.052;17.056;2023-03-17T17:42:57;14.98;;;7.63;;
45232;SDS011;30969;51.052;17.056;2023-03-17T17:48:02;14.02;;;7.93;;
45232;SDS011;30969;51.052;17.056;2023-03-17T17:53:06;14.52;;;7.53;;
45232;SDS011;30969;51.052;17.056;2023-03-17T17:58:13;13.68;;;7.30;;
45232;SDS011;30969;51.052;17.056;2023-03-17T18:03:20;18.45;;;8.35;;
45232;SDS011;30969;51.052;17.056;2023-03-17T18:08:33;13.25;;;7.53;;
45232;SDS011;30969;51.052;17.056;2023-03-17T18:13:36;13.50;;;7.68;;
45232;SDS011;30969;51.052;17.056;2023-03-17T18:18:42;18.05;;;10.00;;
45232;SDS011;30969;51.052;17.056;2023-03-17T18:23:48;16.95;;;9.55;;
45232;SDS011;30969;51.052;17.056;2023-03-17T18:28:57;17.27;;;9.93;;
45232;SDS011;30969;51.052;17.056;2023-03-17T18:34:03;20.25;;;11.02;;
45232;SDS011;30969;51.052;17.056;2023-03-17T18:39:10;20.80;;;11.43;;
45232;SDS011;30969;51.052;17.056;2023-03-17T18:44:14;21.45;;;11.00;;
45232;SDS011;30969;51.052;17.056;2023-03-17T18:49:20;22.30;;;11.35;;
45232;SDS011;30969;51.052;17.056;2023-03-17T18:54:27;22.17;;;11.50;;
45232;SDS011;30969;51.052;17.056;2023-03-17T18:59:32;19.90;;;10.98;;
45232;SDS011;30969;51.052;17.056;2023-03-17T19:04:38;21.20;;;11.57;;
45232;SDS011;30969;51.052;17.056;2023-03-17T19:09:48;22.27;;;13.00;;
45232;SDS011;30969;51.052;17.056;2023-03-17T19:14:52;23.63;;;14.90;;
45232;SDS011;30969;51.052;17.056;2023-03-17T19:19:57;23.00;;;14.05;;
45232;SDS011;30969;51.052;17.056;2023-03-17T19:25:01;24.92;;;13.73;;
45232;SDS011;30969;51.052;17.056;2023-03-17T19:30:06;23.42;;;12.63;;
45232;SDS011;30969;51.052;17.056;2023-03-17T19:35:14;24.95;;;14.20;;
45232;SDS011;30969;51.052;17.056;2023-03-17T19:40:18;22.23;;;13.48;;
45232;SDS011;30969;51.052;17.056;2023-03-17T19:45:23;22.50;;;12.85;;
45232;SDS011;30969;51.052;17.056;2023-03-17T19:50:28;24.90;;;13.05;;
45232;SDS011;30969;51.052;17.056;2023-03-17T19:55:34;24.58;;;12.15;;
45232;SDS011;30969;51.052;17.056;2023-03-17T20:00:39;21.25;;;12.00;;
45232;SDS011;30969;51.052;17.056;2023-03-17T20:05:45;18.73;;;10.68;;
45232;SDS011;30969;51.052;17.056;2023-03-17T20:10:50;17.65;;;10.30;;
45232;SDS011;30969;51.052;17.056;2023-03-17T20:15:54;21.33;;;10.48;;
45232;SDS011;30969;51.052;17.056;2023-03-17T20:21:04;18.30;;;10.18;;
45232;SDS011;30969;51.052;17.056;2023-03-17T20:26:08;17.60;;;10.15;;
45232;SDS011;30969;51.052;17.056;2023-03-17T20:31:14;23.85;;;11.05;;
45232;SDS011;30969;51.052;17.056;2023-03-17T20:36:22;34.00;;;15.45;;
45232;SDS011;30969;51.052;17.056;2023-03-17T20:41:26;31.20;;;14.35;;
45232;SDS011;30969;51.052;17.056;2023-03-17T20:46:31;27.65;;;11.85;;
45232;SDS011;30969;51.052;17.056;2023-03-17T20:51:39;19.45;;;10.23;;
45232;SDS011;30969;51.052;17.056;2023-03-17T20:56:43;22.65;;;11.00;;
45232;SDS011;30969;51.052;17.056;2023-03-17T21:01:46;22.50;;;11.77;;
45232;SDS011;30969;51.052;17.056;2023-03-17T21:06:52;21.98;;;11.43;;
45232;SDS011;30969;51.052;17.056;2023-03-17T21:11:56;25.38;;;12.00;;
45232;SDS011;30969;51.052;17.056;2023-03-17T21:16:59;19.33;;;10.70;;
45232;SDS011;30969;51.052;17.056;2023-03-17T21:22:05;22.27;;;10.80;;
45232;SDS011;30969;51.052;17.056;2023-03-17T21:27:09;22.45;;;12.93;;
45232;SDS011;30969;51.052;17.056;2023-03-17T21:32:13;30.70;;;13.50;;
45232;SDS011;30969;51.052;17.056;2023-03-17T21:37:18;27.52;;;14.88;;
45232;SDS011;30969;51.052;17.056;2023-03-17T21:42:22;29.05;;;15.18;;
45232;SDS011;30969;51.052;17.056;2023-03-17T21:47:28;27.33;;;13.70;;
45232;SDS011;30969;51.052;17.056;2023-03-17T21:52:36;25.08;;;12.43;;
45232;SDS011;30969;51.052;17.056;2023-03-17T21:57:41;24.38;;;12.55;;
45232;SDS011;30969;51.052;17.056;2023-03-17T22:02:46;22.92;;;13.15;;
45232;SDS011;30969;51.052;17.056;2023-03-17T22:07:55;25.55;;;12.27;;
45232;SDS011;30969;51.052;17.056;2023-03-17T22:13:00;18.30;;;10.77;;
45232;SDS011;30969;51.052;17.056;2023-03-17T22:18:06;22.25;;;11.05;;
45232;SDS011;30969;51.052;17.056;2023-03-17T22:23:15;19.95;;;9.98;;
45232;SDS011;30969;51.052;17.056;2023-03-17T22:28:20;21.40;;;10.75;;
45232;SDS011;30969;51.052;17.056;2023-03-17T22:33:26;22.40;;;11.38;;
45232;SDS011;30969;51.052;17.056;2023-03-17T22:38:34;25.95;;;11.68;;
45232;SDS011;30969;51.052;17.056;2023-03-17T22:43:39;26.48;;;14.20;;
45232;SDS011;30969;51.052;17.056;2023-03-17T22:48:43;28.73;;;13.27;;
45232;SDS011;30969;51.052;17.056;2023-03-17T22:53:52;22.80;;;12.57;;
45232;SDS011;30969;51.052;17.056;2023-03-17T22:58:57;28.80;;;14.43;;
45232;SDS011;30969;51.052;17.056;2023-03-17T23:04:03;26.55;;;13.38;;
45232;SDS011;30969;51.052;17.056;2023-03-17T23:15:19;22.90;;;11.98;;
45232;SDS011;30969;51.052;17.056;2023-03-17T23:20:34;25.35;;;13.10;;
45232;SDS011;30969;51.052;17.056;2023-03-17T23:25:40;28.02;;;13.70;;
45232;SDS011;30969;51.052;17.056;2023-03-17T23:30:44;32.75;;;13.95;;
45232;SDS011;30969;51.052;17.056;2023-03-17T23:35:48;28.17;;;14.60;;
45232;SDS011;30969;51.052;17.056;2023-03-17T23:40:55;33.47;;;13.60;;
45232;SDS011;30969;51.052;17.056;2023-03-17T23:45:59;25.75;;;12.60;;
45232;SDS011;30969;51.052;17.056;2023-03-17T23:51:03;23.75;;;12.15;;
45232;SDS011;30969;51.052;17.056;2023-03-17T23:56:09;25.48;;;13.02;;
